sensor_id;sensor_type;location;lat;lon;timestamp;pressure;altitude;pressure_sealevel;temperature;humidity
10079;BME280;5078;42.544;22.966;2023-04-26T00:01:35;92982.88;;;8.64;100.00
10079;BME280;5078;42.544;22.966;2023-04-26T00:04:03;92951.53;;;8.46;100.00
10079;BME280;5078;42.544;22.966;2023-04-26T00:06:30;92975.50;;;8.59;100.00
10079;BME280;5078;42.544;22.966;2023-04-26T00:08:56;92968.72;;;8.72;100.00
10079;BME280;5078;42.544;22.966;2023-04-26T00:11:24;92962.34;;;8.66;100.00
10079;BME280;5078;42.544;22.966;2023-04-26T00:13:51;92966.53;;;8.60;100.00
10079;BME280;5078;42.544;22.966;2023-04-26T00:16:18;92964.44;;;8.56;100.00
10079;BME280;5078;42.544;22.966;2023-04-26T00:18:45;92969.66;;;8.64;100.00
10079;BME280;5078;42.544;22.966;2023-04-26T00:21:13;92961.19;;;8.54;100.00
10079;BME280;5078;42.544;22.966;2023-04-26T00:23:40;92964.81;;;8.38;100.00
10079;BME280;5078;42.544;22.966;2023-04-26T00:26:07;92958.22;;;8.42;100.00
10079;BME280;5078;42.544;22.966;2023-04-26T00:28:35;92965.94;;;8.43;100.00
10079;BME280;5078;42.544;22.966;2023-04-26T00:31:02;92958.25;;;8.63;100.00
10079;BME280;5078;42.544;22.966;2023-04-26T00:33:29;92956.69;;;8.69;100.00
10079;BME280;5078;42.544;22.966;2023-04-26T00:35:55;92948.16;;;8.52;100.00
10079;BME280;5078;42.544;22.966;2023-04-26T00:38:22;92952.13;;;8.63;100.00
10079;BME280;5078;42.544;22.966;2023-04-26T00:40:49;92955.25;;;8.67;100.00
10079;BME280;5078;42.544;22.966;2023-04-26T00:43:16;92956.91;;;8.38;100.00
10079;BME280;5078;42.544;22.966;2023-04-26T00:45:44;92952.34;;;8.61;100.00
10079;BME280;5078;42.544;22.966;2023-04-26T00:48:11;92966.44;;;8.69;100.00
10079;BME280;5078;42.544;22.966;2023-04-26T00:50:38;92962.97;;;8.68;100.00
10079;BME280;5078;42.544;22.966;2023-04-26T00:53:05;92961.78;;;8.71;100.00
10079;BME280;5078;42.544;22.966;2023-04-26T00:55:33;92966.16;;;8.63;100.00
10079;BME280;5078;42.544;22.966;2023-04-26T00:58:01;92961.28;;;8.16;100.00
10079;BME280;5078;42.544;22.966;2023-04-26T01:00:28;92949.38;;;7.90;100.00
10079;BME280;5078;42.544;22.966;2023-04-26T01:02:56;92957.31;;;8.05;100.00
10079;BME280;5078;42.544;22.966;2023-04-26T01:05:23;92963.59;;;8.19;100.00
10079;BME280;5078;42.544;22.966;2023-04-26T01:07:50;92948.19;;;8.23;100.00
10079;BME280;5078;42.544;22.966;2023-04-26T01:10:17;92949.59;;;7.89;100.00
10079;BME280;5078;42.544;22.966;2023-04-26T01:12:44;92951.56;;;7.72;100.00
10079;BME280;5078;42.544;22.966;2023-04-26T01:15:12;92957.13;;;7.62;100.00
10079;BME280;5078;42.544;22.966;2023-04-26T01:17:39;92947.75;;;7.74;100.00
10079;BME280;5078;42.544;22.966;2023-04-26T01:20:08;92958.31;;;7.74;100.00
10079;BME280;5078;42.544;22.966;2023-04-26T01:22:37;92963.44;;;7.53;100.00
10079;BME280;5078;42.544;22.966;2023-04-26T01:25:04;92963.97;;;7.48;100.00
10079;BME280;5078;42.544;22.966;2023-04-26T01:27:33;92942.28;;;7.23;100.00
10079;BME280;5078;42.544;22.966;2023-04-26T01:30:00;92954.63;;;7.46;100.00
10079;BME280;5078;42.544;22.966;2023-04-26T01:32:27;92952.06;;;7.38;100.00
10079;BME280;5078;42.544;22.966;2023-04-26T01:34:54;92945.16;;;7.37;100.00
10079;BME280;5078;42.544;22.966;2023-04-26T01:37:21;92939.25;;;7.34;100.00
10079;BME280;5078;42.544;22.966;2023-04-26T01:39:49;92930.44;;;7.42;100.00
10079;BME280;5078;42.544;22.966;2023-04-26T01:42:15;92930.81;;;7.39;100.00
10079;BME280;5078;42.544;22.966;2023-04-26T01:44:42;92938.47;;;7.49;100.00
10079;BME280;5078;42.544;22.966;2023-04-26T01:47:09;92936.00;;;7.62;100.00
10079;BME280;5078;42.544;22.966;2023-04-26T01:49:35;92936.84;;;7.77;100.00
10079;BME280;5078;42.544;22.966;2023-04-26T01:52:03;92940.28;;;7.78;100.00
10079;BME280;5078;42.544;22.966;2023-04-26T01:54:29;92939.75;;;7.97;100.00
10079;BME280;5078;42.544;22.966;2023-04-26T01:56:57;92942.28;;;8.06;100.00
10079;BME280;5078;42.544;22.966;2023-04-26T01:59:24;92940.63;;;8.19;100.00
10079;BME280;5078;42.544;22.966;2023-04-26T02:01:51;92947.63;;;8.27;100.00
10079;BME280;5078;42.544;22.966;2023-04-26T02:04:17;92948.72;;;8.33;100.00
10079;BME280;5078;42.544;22.966;2023-04-26T02:06:44;92949.53;;;8.33;100.00
10079;BME280;5078;42.544;22.966;2023-04-26T02:09:11;92950.72;;;8.46;100.00
10079;BME280;5078;42.544;22.966;2023-04-26T02:11:38;92947.41;;;8.58;100.00
10079;BME280;5078;42.544;22.966;2023-04-26T02:14:06;92953.59;;;8.66;100.00
10079;BME280;5078;42.544;22.966;2023-04-26T02:16:33;92949.72;;;8.83;100.00
10079;BME280;5078;42.544;22.966;2023-04-26T02:18:59;92945.78;;;8.57;100.00
10079;BME280;5078;42.544;22.966;2023-04-26T02:21:28;92942.81;;;8.46;100.00
10079;BME280;5078;42.544;22.966;2023-04-26T02:23:55;92942.03;;;8.67;100.00
10079;BME280;5078;42.544;22.966;2023-04-26T02:26:22;92933.25;;;8.66;100.00
10079;BME280;5078;42.544;22.966;2023-04-26T02:28:48;92920.34;;;8.71;100.00
10079;BME280;5078;42.544;22.966;2023-04-26T02:31:16;92917.44;;;8.88;100.00
10079;BME280;5078;42.544;22.966;2023-04-26T02:33:43;92904.41;;;8.86;100.00
10079;BME280;5078;42.544;22.966;2023-04-26T02:36:10;92901.72;;;8.43;100.00
10079;BME280;5078;42.544;22.966;2023-04-26T02:38:37;92887.63;;;8.21;100.00
10079;BME280;5078;42.544;22.966;2023-04-26T02:41:04;92877.00;;;8.14;100.00
10079;BME280;5078;42.544;22.966;2023-04-26T02:43:31;92880.63;;;8.13;100.00
10079;BME280;5078;42.544;22.966;2023-04-26T02:45:57;92868.88;;;8.16;100.00
10079;BME280;5078;42.544;22.966;2023-04-26T02:48:26;92877.31;;;8.26;100.00
10079;BME280;5078;42.544;22.966;2023-04-26T02:50:53;92885.34;;;8.33;100.00
10079;BME280;5078;42.544;22.966;2023-04-26T02:53:21;92890.63;;;8.33;100.00
10079;BME280;5078;42.544;22.966;2023-04-26T02:55:48;92897.56;;;8.34;100.00
10079;BME280;5078;42.544;22.966;2023-04-26T02:58:15;92888.91;;;8.25;100.00
10079;BME280;5078;42.544;22.966;2023-04-26T03:00:44;92892.00;;;8.29;100.00
10079;BME280;5078;42.544;22.966;2023-04-26T03:03:11;92879.44;;;8.16;100.00
10079;BME280;5078;42.544;22.966;2023-04-26T03:05:40;92889.19;;;8.15;100.00
10079;BME280;5078;42.544;22.966;2023-04-26T03:08:07;92891.94;;;8.22;100.00
10079;BME280;5078;42.544;22.966;2023-04-26T03:10:33;92902.25;;;8.02;100.00
10079;BME280;5078;42.544;22.966;2023-04-26T03:13:00;92890.63;;;7.82;100.00
10079;BME280;5078;42.544;22.966;2023-04-26T03:15:28;92903.44;;;7.70;100.00
10079;BME280;5078;42.544;22.966;2023-04-26T03:17:54;92901.72;;;7.77;100.00
10079;BME280;5078;42.544;22.966;2023-04-26T03:20:22;92898.00;;;7.86;100.00
10079;BME280;5078;42.544;22.966;2023-04-26T03:22:50;92908.06;;;7.68;100.00
10079;BME280;5078;42.544;22.966;2023-04-26T03:25:17;92901.69;;;8.07;100.00
10079;BME280;5078;42.544;22.966;2023-04-26T03:27:44;92901.75;;;8.13;100.00
10079;BME280;5078;42.544;22.966;2023-04-26T03:30:11;92902.97;;;7.96;100.00
10079;BME280;5078;42.544;22.966;2023-04-26T03:32:38;92909.56;;;8.36;100.00
10079;BME280;5078;42.544;22.966;2023-04-26T03:35:06;92913.66;;;8.54;100.00
10079;BME280;5078;42.544;22.966;2023-04-26T03:37:32;92919.00;;;8.60;100.00
10079;BME280;5078;42.544;22.966;2023-04-26T03:40:00;92921.19;;;8.57;100.00
10079;BME280;5078;42.544;22.966;2023-04-26T03:42:27;92923.50;;;8.45;100.00
10079;BME280;5078;42.544;22.966;2023-04-26T03:44:54;92922.34;;;8.18;100.00
10079;BME280;5078;42.544;22.966;2023-04-26T03:47:20;92924.28;;;8.09;100.00
10079;BME280;5078;42.544;22.966;2023-04-26T03:49:47;92931.19;;;7.95;100.00
10079;BME280;5078;42.544;22.966;2023-04-26T03:52:14;92925.38;;;7.85;100.00
10079;BME280;5078;42.544;22.966;2023-04-26T03:54:41;92937.81;;;8.06;100.00
10079;BME280;5078;42.544;22.966;2023-04-26T03:57:09;92929.34;;;7.96;100.00
10079;BME280;5078;42.544;22.966;2023-04-26T03:59:35;92941.63;;;8.04;100.00
10079;BME280;5078;42.544;22.966;2023-04-26T04:02:02;92944.75;;;8.07;100.00
10079;BME280;5078;42.544;22.966;2023-04-26T04:04:29;92935.00;;;8.08;100.00
10079;BME280;5078;42.544;22.966;2023-04-26T04:06:56;92940.53;;;8.13;100.00
10079;BME280;5078;42.544;22.966;2023-04-26T04:09:22;92937.91;;;8.13;100.00
10079;BME280;5078;42.544;22.966;2023-04-26T04:11:49;92940.53;;;8.13;100.00
10079;BME280;5078;42.544;22.966;2023-04-26T04:14:18;92934.09;;;8.00;100.00
10079;BME280;5078;42.544;22.966;2023-04-26T04:16:45;92938.66;;;7.92;100.00
10079;BME280;5078;42.544;22.966;2023-04-26T04:19:12;92937.00;;;8.06;100.00
10079;BME280;5078;42.544;22.966;2023-04-26T04:21:38;92935.75;;;8.02;100.00
10079;BME280;5078;42.544;22.966;2023-04-26T04:24:07;92934.56;;;7.89;100.00
10079;BME280;5078;42.544;22.966;2023-04-26T04:26:34;92929.81;;;7.85;100.00
10079;BME280;5078;42.544;22.966;2023-04-26T04:29:01;92933.19;;;7.93;100.00
10079;BME280;5078;42.544;22.966;2023-04-26T04:31:34;92940.13;;;7.94;100.00
10079;BME280;5078;42.544;22.966;2023-04-26T04:34:01;92929.19;;;7.97;100.00
10079;BME280;5078;42.544;22.966;2023-04-26T04:36:34;92949.38;;;7.90;100.00
10079;BME280;5078;42.544;22.966;2023-04-26T04:39:00;92952.94;;;7.83;100.00
10079;BME280;5078;42.544;22.966;2023-04-26T04:41:28;92958.75;;;7.78;100.00
10079;BME280;5078;42.544;22.966;2023-04-26T04:43:55;92957.31;;;7.90;100.00
10079;BME280;5078;42.544;22.966;2023-04-26T04:46:21;92955.19;;;8.00;100.00
10079;BME280;5078;42.544;22.966;2023-04-26T04:48:51;92961.22;;;8.09;100.00
10079;BME280;5078;42.544;22.966;2023-04-26T04:51:17;92963.91;;;8.31;100.00
10079;BME280;5078;42.544;22.966;2023-04-26T04:53:44;92962.56;;;8.20;100.00
10079;BME280;5078;42.544;22.966;2023-04-26T04:56:11;92954.28;;;8.23;100.00
10079;BME280;5078;42.544;22.966;2023-04-26T04:58:38;92952.66;;;8.22;100.00
10079;BME280;5078;42.544;22.966;2023-04-26T05:01:05;92954.38;;;8.15;100.00
10079;BME280;5078;42.544;22.966;2023-04-26T05:03:32;92958.91;;;8.21;100.00
10079;BME280;5078;42.544;22.966;2023-04-26T05:06:00;92959.13;;;7.90;100.00
10079;BME280;5078;42.544;22.966;2023-04-26T05:08:27;92950.47;;;7.81;100.00
10079;BME280;5078;42.544;22.966;2023-04-26T05:10:53;92958.84;;;7.85;100.00
10079;BME280;5078;42.544;22.966;2023-04-26T05:13:21;92957.13;;;7.92;100.00
10079;BME280;5078;42.544;22.966;2023-04-26T05:15:47;92955.75;;;8.11;100.00
10079;BME280;5078;42.544;22.966;2023-04-26T05:18:14;92959.75;;;8.36;100.00
10079;BME280;5078;42.544;22.966;2023-04-26T05:20:41;92952.13;;;8.41;100.00
10079;BME280;5078;42.544;22.966;2023-04-26T05:23:09;92956.91;;;8.38;100.00
10079;BME280;5078;42.544;22.966;2023-04-26T05:25:36;92956.63;;;8.33;100.00
10079;BME280;5078;42.544;22.966;2023-04-26T05:28:03;92953.81;;;8.34;100.00
10079;BME280;5078;42.544;22.966;2023-04-26T05:30:30;92951.63;;;8.38;100.00
10079;BME280;5078;42.544;22.966;2023-04-26T05:32:57;92944.47;;;8.47;100.00
10079;BME280;5078;42.544;22.966;2023-04-26T05:35:24;92945.81;;;8.42;100.00
10079;BME280;5078;42.544;22.966;2023-04-26T05:37:51;92954.22;;;8.68;100.00
10079;BME280;5078;42.544;22.966;2023-04-26T05:40:19;92955.69;;;8.70;100.00
10079;BME280;5078;42.544;22.966;2023-04-26T05:42:45;92955.16;;;8.96;100.00
10079;BME280;5078;42.544;22.966;2023-04-26T05:45:12;92954.19;;;9.25;100.00
10079;BME280;5078;42.544;22.966;2023-04-26T05:47:39;92949.22;;;9.37;100.00
10079;BME280;5078;42.544;22.966;2023-04-26T05:50:07;92936.66;;;9.46;100.00
10079;BME280;5078;42.544;22.966;2023-04-26T05:52:34;92953.78;;;9.50;100.00
10079;BME280;5078;42.544;22.966;2023-04-26T05:55:00;92963.88;;;9.68;100.00
10079;BME280;5078;42.544;22.966;2023-04-26T05:57:29;92967.31;;;9.90;100.00
10079;BME280;5078;42.544;22.966;2023-04-26T05:59:56;92973.88;;;10.01;100.00
10079;BME280;5078;42.544;22.966;2023-04-26T06:02:24;92978.28;;;9.87;100.00
10079;BME280;5078;42.544;22.966;2023-04-26T06:04:51;92981.41;;;9.97;100.00
10079;BME280;5078;42.544;22.966;2023-04-26T06:07:18;92980.91;;;10.15;100.00
10079;BME280;5078;42.544;22.966;2023-04-26T06:09:45;92969.47;;;9.80;100.00
10079;BME280;5078;42.544;22.966;2023-04-26T06:12:12;92991.22;;;10.03;100.00
10079;BME280;5078;42.544;22.966;2023-04-26T06:14:40;92982.13;;;10.12;100.00
10079;BME280;5078;42.544;22.966;2023-04-26T06:17:06;92977.91;;;10.25;100.00
10079;BME280;5078;42.544;22.966;2023-04-26T06:19:33;92975.97;;;10.40;100.00
10079;BME280;5078;42.544;22.966;2023-04-26T06:22:00;92980.66;;;10.38;100.00
10079;BME280;5078;42.544;22.966;2023-04-26T06:24:27;92978.63;;;10.40;100.00
10079;BME280;5078;42.544;22.966;2023-04-26T06:26:53;92984.06;;;9.97;100.00
10079;BME280;5078;42.544;22.966;2023-04-26T06:29:20;92978.91;;;9.89;100.00
10079;BME280;5078;42.544;22.966;2023-04-26T06:31:48;92985.38;;;10.14;100.00
10079;BME280;5078;42.544;22.966;2023-04-26T06:34:16;92980.28;;;10.13;100.00
10079;BME280;5078;42.544;22.966;2023-04-26T06:36:43;92990.28;;;10.11;100.00
10079;BME280;5078;42.544;22.966;2023-04-26T06:39:10;92986.53;;;10.05;100.00
10079;BME280;5078;42.544;22.966;2023-04-26T06:41:38;92992.09;;;9.82;100.00
10079;BME280;5078;42.544;22.966;2023-04-26T06:44:05;92980.97;;;9.65;100.00
10079;BME280;5078;42.544;22.966;2023-04-26T06:46:32;92964.06;;;9.38;100.00
10079;BME280;5078;42.544;22.966;2023-04-26T06:49:00;92999.72;;;9.42;100.00
10079;BME280;5078;42.544;22.966;2023-04-26T06:51:27;92998.34;;;9.46;100.00
10079;BME280;5078;42.544;22.966;2023-04-26T06:53:54;92996.00;;;9.37;100.00
10079;BME280;5078;42.544;22.966;2023-04-26T06:56:23;93008.59;;;9.56;100.00
10079;BME280;5078;42.544;22.966;2023-04-26T06:59:00;93010.38;;;9.49;100.00
10079;BME280;5078;42.544;22.966;2023-04-26T07:01:28;92992.72;;;9.35;100.00
10079;BME280;5078;42.544;22.966;2023-04-26T07:03:58;92999.47;;;9.37;100.00
10079;BME280;5078;42.544;22.966;2023-04-26T07:06:27;93021.19;;;9.54;100.00
10079;BME280;5078;42.544;22.966;2023-04-26T07:08:56;93025.97;;;9.65;100.00
10079;BME280;5078;42.544;22.966;2023-04-26T07:11:23;93021.44;;;9.59;100.00
10079;BME280;5078;42.544;22.966;2023-04-26T07:13:50;93038.38;;;9.65;100.00
10079;BME280;5078;42.544;22.966;2023-04-26T07:16:17;93024.97;;;9.45;100.00
10079;BME280;5078;42.544;22.966;2023-04-26T07:18:43;93030.13;;;9.53;100.00
10079;BME280;5078;42.544;22.966;2023-04-26T07:21:12;93026.22;;;9.70;100.00
10079;BME280;5078;42.544;22.966;2023-04-26T07:23:40;93002.97;;;9.66;100.00
10079;BME280;5078;42.544;22.966;2023-04-26T07:26:09;93033.34;;;9.98;100.00
10079;BME280;5078;42.544;22.966;2023-04-26T07:28:36;93028.97;;;9.84;100.00
10079;BME280;5078;42.544;22.966;2023-04-26T07:31:03;93012.47;;;9.82;100.00
10079;BME280;5078;42.544;22.966;2023-04-26T07:33:30;93030.25;;;10.23;100.00
10079;BME280;5078;42.544;22.966;2023-04-26T07:35:57;93022.81;;;10.33;100.00
10079;BME280;5078;42.544;22.966;2023-04-26T07:38:25;93039.34;;;10.35;100.00
10079;BME280;5078;42.544;22.966;2023-04-26T07:40:54;93037.09;;;10.32;100.00
10079;BME280;5078;42.544;22.966;2023-04-26T07:43:21;93043.88;;;10.41;100.00
10079;BME280;5078;42.544;22.966;2023-04-26T07:45:48;93036.16;;;10.53;100.00
10079;BME280;5078;42.544;22.966;2023-04-26T07:48:16;93027.84;;;10.56;100.00
10079;BME280;5078;42.544;22.966;2023-04-26T07:50:42;93034.69;;;10.85;100.00
10079;BME280;5078;42.544;22.966;2023-04-26T07:53:09;93037.41;;;10.98;100.00
10079;BME280;5078;42.544;22.966;2023-04-26T07:55:36;93035.91;;;10.76;100.00
10079;BME280;5078;42.544;22.966;2023-04-26T07:58:04;93034.84;;;11.25;100.00
10079;BME280;5078;42.544;22.966;2023-04-26T08:00:31;93044.97;;;11.08;100.00
10079;BME280;5078;42.544;22.966;2023-04-26T08:03:02;93039.28;;;11.18;100.00
10079;BME280;5078;42.544;22.966;2023-04-26T08:05:29;93036.94;;;11.56;100.00
10079;BME280;5078;42.544;22.966;2023-04-26T08:07:56;93034.28;;;11.56;100.00
10079;BME280;5078;42.544;22.966;2023-04-26T08:10:22;93033.69;;;11.61;100.00
10079;BME280;5078;42.544;22.966;2023-04-26T08:12:49;93048.38;;;11.57;100.00
10079;BME280;5078;42.544;22.966;2023-04-26T08:15:17;93029.81;;;11.70;100.00
10079;BME280;5078;42.544;22.966;2023-04-26T08:17:44;93041.88;;;11.86;100.00
10079;BME280;5078;42.544;22.966;2023-04-26T08:20:12;93033.06;;;11.72;100.00
10079;BME280;5078;42.544;22.966;2023-04-26T08:22:39;93041.66;;;11.74;100.00
10079;BME280;5078;42.544;22.966;2023-04-26T08:25:06;93042.53;;;11.95;100.00
10079;BME280;5078;42.544;22.966;2023-04-26T08:27:34;93038.38;;;11.65;100.00
10079;BME280;5078;42.544;22.966;2023-04-26T08:30:01;93034.75;;;12.13;100.00
10079;BME280;5078;42.544;22.966;2023-04-26T08:32:29;93030.84;;;12.36;96.37
10079;BME280;5078;42.544;22.966;2023-04-26T08:34:56;93036.13;;;12.49;93.84
10079;BME280;5078;42.544;22.966;2023-04-26T08:37:22;93043.31;;;12.48;94.15
10079;BME280;5078;42.544;22.966;2023-04-26T08:39:49;93037.78;;;12.43;89.96
10079;BME280;5078;42.544;22.966;2023-04-26T08:42:16;93030.97;;;12.67;87.07
10079;BME280;5078;42.544;22.966;2023-04-26T08:44:44;93033.19;;;12.84;84.98
10079;BME280;5078;42.544;22.966;2023-04-26T08:47:15;93040.91;;;12.92;82.65
10079;BME280;5078;42.544;22.966;2023-04-26T08:49:45;93038.09;;;12.80;80.18
10079;BME280;5078;42.544;22.966;2023-04-26T08:52:14;93024.69;;;12.48;78.88
10079;BME280;5078;42.544;22.966;2023-04-26T08:54:49;93035.75;;;12.32;83.27
10079;BME280;5078;42.544;22.966;2023-04-26T08:57:16;93031.63;;;12.56;77.14
10079;BME280;5078;42.544;22.966;2023-04-26T08:59:43;93020.75;;;12.58;80.43
10079;BME280;5078;42.544;22.966;2023-04-26T09:02:15;93028.59;;;13.04;76.51
10079;BME280;5078;42.544;22.966;2023-04-26T09:04:44;93026.19;;;12.89;68.90
10079;BME280;5078;42.544;22.966;2023-04-26T09:07:17;93028.16;;;13.07;68.94
10079;BME280;5078;42.544;22.966;2023-04-26T09:09:48;93034.25;;;13.21;70.26
10079;BME280;5078;42.544;22.966;2023-04-26T09:12:17;93030.75;;;13.34;67.93
10079;BME280;5078;42.544;22.966;2023-04-26T09:14:45;93028.41;;;12.99;66.29
10079;BME280;5078;42.544;22.966;2023-04-26T09:17:25;93037.72;;;13.22;65.22
10079;BME280;5078;42.544;22.966;2023-04-26T09:19:54;93030.91;;;13.46;60.98
10079;BME280;5078;42.544;22.966;2023-04-26T09:22:30;93028.22;;;13.77;58.71
10079;BME280;5078;42.544;22.966;2023-04-26T09:24:58;93022.66;;;13.47;54.27
10079;BME280;5078;42.544;22.966;2023-04-26T09:27:32;93000.66;;;13.90;57.26
10079;BME280;5078;42.544;22.966;2023-04-26T09:30:03;92999.69;;;14.10;53.83
10079;BME280;5078;42.544;22.966;2023-04-26T09:32:43;93024.81;;;13.95;56.02
10079;BME280;5078;42.544;22.966;2023-04-26T09:35:21;93025.47;;;14.16;55.23
10079;BME280;5078;42.544;22.966;2023-04-26T09:37:52;93005.59;;;13.62;55.96
10079;BME280;5078;42.544;22.966;2023-04-26T09:40:20;93005.13;;;13.96;54.72
10079;BME280;5078;42.544;22.966;2023-04-26T09:42:55;93005.94;;;13.97;53.09
10079;BME280;5078;42.544;22.966;2023-04-26T09:45:22;93010.56;;;14.08;54.98
10079;BME280;5078;42.544;22.966;2023-04-26T09:47:49;93010.41;;;14.03;53.42
10079;BME280;5078;42.544;22.966;2023-04-26T09:50:27;92990.53;;;13.74;55.53
10079;BME280;5078;42.544;22.966;2023-04-26T09:52:54;93002.25;;;13.73;56.54
10079;BME280;5078;42.544;22.966;2023-04-26T09:55:30;93006.66;;;13.86;55.83
10079;BME280;5078;42.544;22.966;2023-04-26T09:57:57;93005.38;;;13.63;56.88
10079;BME280;5078;42.544;22.966;2023-04-26T10:00:26;92985.53;;;13.84;56.02
10079;BME280;5078;42.544;22.966;2023-04-26T10:02:53;92995.84;;;13.80;55.03
10079;BME280;5078;42.544;22.966;2023-04-26T10:05:20;93002.91;;;13.93;53.87
10079;BME280;5078;42.544;22.966;2023-04-26T10:07:49;93006.41;;;13.87;54.50
10079;BME280;5078;42.544;22.966;2023-04-26T10:10:17;93009.47;;;13.66;56.18
10079;BME280;5078;42.544;22.966;2023-04-26T10:12:44;92995.28;;;13.40;54.32
10079;BME280;5078;42.544;22.966;2023-04-26T10:15:11;93001.59;;;13.46;56.27
10079;BME280;5078;42.544;22.966;2023-04-26T10:17:38;92969.59;;;13.52;55.53
10079;BME280;5078;42.544;22.966;2023-04-26T10:20:08;93008.44;;;13.92;53.06
10079;BME280;5078;42.544;22.966;2023-04-26T10:22:42;93007.91;;;13.51;54.33
10079;BME280;5078;42.544;22.966;2023-04-26T10:25:11;93003.25;;;13.72;54.25
10079;BME280;5078;42.544;22.966;2023-04-26T10:27:51;93010.00;;;13.74;52.63
10079;BME280;5078;42.544;22.966;2023-04-26T10:30:19;92989.47;;;13.11;53.74
10079;BME280;5078;42.544;22.966;2023-04-26T10:33:20;93002.72;;;13.31;53.23
10079;BME280;5078;42.544;22.966;2023-04-26T10:36:10;93006.78;;;13.34;54.51
10079;BME280;5078;42.544;22.966;2023-04-26T10:38:38;93001.06;;;13.30;54.02
10079;BME280;5078;42.544;22.966;2023-04-26T10:41:29;93004.56;;;13.24;56.14
10079;BME280;5078;42.544;22.966;2023-04-26T10:43:58;93006.84;;;13.14;54.85
10079;BME280;5078;42.544;22.966;2023-04-26T10:46:36;92997.44;;;13.56;54.44
10079;BME280;5078;42.544;22.966;2023-04-26T10:49:13;92998.38;;;13.30;53.94
10079;BME280;5078;42.544;22.966;2023-04-26T10:52:11;93006.19;;;13.32;56.40
10079;BME280;5078;42.544;22.966;2023-04-26T10:54:53;93003.91;;;13.35;53.42
10079;BME280;5078;42.544;22.966;2023-04-26T10:57:21;92991.31;;;13.49;53.04
10079;BME280;5078;42.544;22.966;2023-04-26T11:00:16;93012.91;;;13.34;51.33
10079;BME280;5078;42.544;22.966;2023-04-26T11:03:06;93010.88;;;13.30;51.88
10079;BME280;5078;42.544;22.966;2023-04-26T11:05:50;93021.59;;;13.16;53.66
10079;BME280;5078;42.544;22.966;2023-04-26T11:08:20;93018.28;;;12.69;51.87
10079;BME280;5078;42.544;22.966;2023-04-26T11:10:50;93022.97;;;12.81;52.58
10079;BME280;5078;42.544;22.966;2023-04-26T11:13:18;93012.44;;;12.99;54.62
10079;BME280;5078;42.544;22.966;2023-04-26T11:15:45;93015.34;;;12.91;55.46
10079;BME280;5078;42.544;22.966;2023-04-26T11:18:17;93017.59;;;12.94;56.46
10079;BME280;5078;42.544;22.966;2023-04-26T11:20:44;93011.09;;;12.83;55.00
10079;BME280;5078;42.544;22.966;2023-04-26T11:23:12;93012.59;;;12.59;56.87
10079;BME280;5078;42.544;22.966;2023-04-26T11:25:41;93018.16;;;13.03;56.18
10079;BME280;5078;42.544;22.966;2023-04-26T11:28:07;93023.88;;;13.06;54.26
10079;BME280;5078;42.544;22.966;2023-04-26T11:30:34;93030.53;;;12.77;55.78
10079;BME280;5078;42.544;22.966;2023-04-26T11:33:02;93025.19;;;12.90;57.26
10079;BME280;5078;42.544;22.966;2023-04-26T11:35:32;93032.75;;;12.87;55.59
10079;BME280;5078;42.544;22.966;2023-04-26T11:37:59;93025.03;;;12.65;54.93
10079;BME280;5078;42.544;22.966;2023-04-26T11:40:30;93026.69;;;12.73;54.12
10079;BME280;5078;42.544;22.966;2023-04-26T11:43:03;93037.09;;;12.81;54.35
10079;BME280;5078;42.544;22.966;2023-04-26T11:45:31;93020.13;;;12.76;55.36
10079;BME280;5078;42.544;22.966;2023-04-26T11:47:59;93025.94;;;13.04;53.82
10079;BME280;5078;42.544;22.966;2023-04-26T11:50:27;93016.69;;;13.13;53.45
10079;BME280;5078;42.544;22.966;2023-04-26T11:52:55;93016.00;;;13.25;54.25
10079;BME280;5078;42.544;22.966;2023-04-26T11:55:23;93031.72;;;13.46;54.64
10079;BME280;5078;42.544;22.966;2023-04-26T11:57:52;93024.84;;;13.64;50.81
10079;BME280;5078;42.544;22.966;2023-04-26T12:00:21;93025.66;;;13.26;50.89
10079;BME280;5078;42.544;22.966;2023-04-26T12:02:49;93021.13;;;13.33;53.51
10079;BME280;5078;42.544;22.966;2023-04-26T12:05:23;93021.22;;;13.51;50.90
10079;BME280;5078;42.544;22.966;2023-04-26T12:07:51;93022.50;;;13.74;51.37
10079;BME280;5078;42.544;22.966;2023-04-26T12:10:23;93032.41;;;13.22;50.71
10079;BME280;5078;42.544;22.966;2023-04-26T12:12:52;93016.25;;;13.16;50.40
10079;BME280;5078;42.544;22.966;2023-04-26T12:15:24;93013.72;;;13.35;51.74
10079;BME280;5078;42.544;22.966;2023-04-26T12:17:55;93016.75;;;13.45;53.95
10079;BME280;5078;42.544;22.966;2023-04-26T12:20:40;93020.94;;;13.66;55.86
10079;BME280;5078;42.544;22.966;2023-04-26T12:23:08;93022.06;;;13.77;56.18
10079;BME280;5078;42.544;22.966;2023-04-26T12:25:37;93015.41;;;13.23;53.17
10079;BME280;5078;42.544;22.966;2023-04-26T12:28:05;93022.84;;;13.07;53.01
10079;BME280;5078;42.544;22.966;2023-04-26T12:30:34;93019.41;;;13.00;54.40
10079;BME280;5078;42.544;22.966;2023-04-26T12:33:00;93017.56;;;13.01;52.18
10079;BME280;5078;42.544;22.966;2023-04-26T12:35:28;93018.19;;;12.96;52.12
10079;BME280;5078;42.544;22.966;2023-04-26T12:37:54;93017.06;;;13.24;53.38
10079;BME280;5078;42.544;22.966;2023-04-26T12:40:22;93022.47;;;13.04;52.84
10079;BME280;5078;42.544;22.966;2023-04-26T12:42:49;93019.28;;;12.75;54.71
10079;BME280;5078;42.544;22.966;2023-04-26T12:45:17;93011.81;;;13.04;53.65
10079;BME280;5078;42.544;22.966;2023-04-26T12:47:45;93009.72;;;13.12;54.36
10079;BME280;5078;42.544;22.966;2023-04-26T12:50:12;93004.72;;;12.91;53.79
10079;BME280;5078;42.544;22.966;2023-04-26T12:52:40;93006.34;;;12.85;53.78
10079;BME280;5078;42.544;22.966;2023-04-26T12:55:09;93014.81;;;12.76;56.93
10079;BME280;5078;42.544;22.966;2023-04-26T12:57:36;93009.91;;;12.66;57.74
10079;BME280;5078;42.544;22.966;2023-04-26T13:00:05;93005.13;;;12.88;56.68
10079;BME280;5078;42.544;22.966;2023-04-26T13:02:32;93017.84;;;12.86;57.30
10079;BME280;5078;42.544;22.966;2023-04-26T13:05:01;93007.75;;;12.36;59.31
10079;BME280;5078;42.544;22.966;2023-04-26T13:07:29;93018.72;;;12.66;59.40